sensor_id;sensor_type;location;lat;lon;timestamp;P1;durP1;ratioP1;P2;durP2;ratioP2
16407;SDS011;8313;49.894;8.084;2023-01-01T00:02:00;8.27;;;6.27;;
16407;SDS011;8313;49.894;8.084;2023-01-01T00:04:26;9.97;;;6.27;;
16407;SDS011;8313;49.894;8.084;2023-01-01T00:06:52;10.70;;;6.20;;
16407;SDS011;8313;49.894;8.084;2023-01-01T00:09:18;9.30;;;6.43;;
16407;SDS011;8313;49.894;8.084;2023-01-01T00:12:03;8.87;;;6.63;;
16407;SDS011;8313;49.894;8.084;2023-01-01T00:14:29;11.63;;;7.97;;
16407;SDS011;8313;49.894;8.084;2023-01-01T00:16:54;10.07;;;7.53;;
16407;SDS011;8313;49.894;8.084;2023-01-01T00:19:20;9.77;;;7.20;;
16407;SDS011;8313;49.894;8.084;2023-01-01T00:21:46;8.43;;;6.03;;
16407;SDS011;8313;49.894;8.084;2023-01-01T00:24:12;7.13;;;5.77;;
16407;SDS011;8313;49.894;8.084;2023-01-01T00:26:37;8.47;;;6.13;;
16407;SDS011;8313;49.894;8.084;2023-01-01T00:29:03;8.20;;;5.40;;
16407;SDS011;8313;49.894;8.084;2023-01-01T00:31:29;7.30;;;5.37;;
16407;SDS011;8313;49.894;8.084;2023-01-01T00:33:56;6.33;;;5.00;;
16407;SDS011;8313;49.894;8.084;2023-01-01T00:36:22;7.87;;;5.30;;
16407;SDS011;8313;49.894;8.084;2023-01-01T00:38:49;5.57;;;4.40;;
16407;SDS011;8313;49.894;8.084;2023-01-01T00:41:16;6.07;;;4.60;;
16407;SDS011;8313;49.894;8.084;2023-01-01T00:43:42;6.87;;;4.93;;
16407;SDS011;8313;49.894;8.084;2023-01-01T00:46:08;5.97;;;4.47;;
16407;SDS011;8313;49.894;8.084;2023-01-01T00:48:35;5.63;;;3.97;;
16407;SDS011;8313;49.894;8.084;2023-01-01T00:51:01;6.73;;;4.30;;
16407;SDS011;8313;49.894;8.084;2023-01-01T00:53:28;8.40;;;5.13;;
16407;SDS011;8313;49.894;8.084;2023-01-01T00:55:54;7.70;;;4.97;;
16407;SDS011;8313;49.894;8.084;2023-01-01T00:58:20;5.93;;;4.83;;
16407;SDS011;8313;49.894;8.084;2023-01-01T01:00:47;6.80;;;4.53;;
16407;SDS011;8313;49.894;8.084;2023-01-01T01:03:13;6.60;;;4.60;;
16407;SDS011;8313;49.894;8.084;2023-01-01T01:08:24;9.40;;;5.33;;
16407;SDS011;8313;49.894;8.084;2023-01-01T01:10:51;6.00;;;5.23;;
16407;SDS011;8313;49.894;8.084;2023-01-01T01:13:17;9.00;;;6.00;;
16407;SDS011;8313;49.894;8.084;2023-01-01T01:15:43;6.93;;;5.13;;
16407;SDS011;8313;49.894;8.084;2023-01-01T01:18:08;7.00;;;5.40;;
16407;SDS011;8313;49.894;8.084;2023-01-01T01:20:34;9.07;;;5.90;;
16407;SDS011;8313;49.894;8.084;2023-01-01T01:23:00;8.20;;;6.00;;
16407;SDS011;8313;49.894;8.084;2023-01-01T01:25:26;9.00;;;5.70;;
16407;SDS011;8313;49.894;8.084;2023-01-01T01:27:51;7.97;;;5.90;;
16407;SDS011;8313;49.894;8.084;2023-01-01T01:30:17;10.20;;;6.17;;
16407;SDS011;8313;49.894;8.084;2023-01-01T01:32:43;8.50;;;5.97;;
16407;SDS011;8313;49.894;8.084;2023-01-01T01:35:08;11.20;;;6.27;;
16407;SDS011;8313;49.894;8.084;2023-01-01T01:37:34;6.10;;;5.30;;
16407;SDS011;8313;49.894;8.084;2023-01-01T01:40:00;6.83;;;5.47;;
16407;SDS011;8313;49.894;8.084;2023-01-01T01:42:25;8.77;;;6.17;;
16407;SDS011;8313;49.894;8.084;2023-01-01T01:44:53;7.50;;;4.87;;
16407;SDS011;8313;49.894;8.084;2023-01-01T01:50:10;6.13;;;4.80;;
16407;SDS011;8313;49.894;8.084;2023-01-01T01:52:38;4.77;;;4.30;;
16407;SDS011;8313;49.894;8.084;2023-01-01T01:55:10;7.30;;;5.03;;
16407;SDS011;8313;49.894;8.084;2023-01-01T01:57:38;13.73;;;4.93;;
16407;SDS011;8313;49.894;8.084;2023-01-01T02:00:05;5.10;;;3.70;;
16407;SDS011;8313;49.894;8.084;2023-01-01T02:02:36;3.87;;;3.50;;
16407;SDS011;8313;49.894;8.084;2023-01-01T02:05:21;5.63;;;4.10;;
16407;SDS011;8313;49.894;8.084;2023-01-01T02:07:49;4.20;;;3.10;;
16407;SDS011;8313;49.894;8.084;2023-01-01T02:10:16;3.60;;;3.20;;
16407;SDS011;8313;49.894;8.084;2023-01-01T02:12:42;3.40;;;3.10;;
16407;SDS011;8313;49.894;8.084;2023-01-01T02:15:08;4.23;;;3.83;;
16407;SDS011;8313;49.894;8.084;2023-01-01T02:17:38;6.40;;;3.40;;
16407;SDS011;8313;49.894;8.084;2023-01-01T02:20:33;4.60;;;2.90;;
16407;SDS011;8313;49.894;8.084;2023-01-01T02:26:04;5.20;;;3.30;;
16407;SDS011;8313;49.894;8.084;2023-01-01T02:31:26;3.53;;;3.23;;
16407;SDS011;8313;49.894;8.084;2023-01-01T02:33:57;3.87;;;3.07;;
16407;SDS011;8313;49.894;8.084;2023-01-01T02:36:25;3.90;;;3.20;;
16407;SDS011;8313;49.894;8.084;2023-01-01T02:38:54;4.27;;;2.97;;
16407;SDS011;8313;49.894;8.084;2023-01-01T02:41:26;4.00;;;3.43;;
16407;SDS011;8313;49.894;8.084;2023-01-01T02:43:55;5.07;;;3.33;;
16407;SDS011;8313;49.894;8.084;2023-01-01T02:46:20;5.30;;;3.37;;
16407;SDS011;8313;49.894;8.084;2023-01-01T02:48:50;6.03;;;3.07;;
16407;SDS011;8313;49.894;8.084;2023-01-01T02:51:33;4.80;;;3.40;;
16407;SDS011;8313;49.894;8.084;2023-01-01T03:05:19;4.70;;;3.63;;
16407;SDS011;8313;49.894;8.084;2023-01-01T03:08:31;6.30;;;3.30;;
16407;SDS011;8313;49.894;8.084;2023-01-01T03:11:07;3.40;;;3.07;;
16407;SDS011;8313;49.894;8.084;2023-01-01T03:24:32;4.50;;;2.80;;
16407;SDS011;8313;49.894;8.084;2023-01-01T03:29:42;3.10;;;2.80;;
16407;SDS011;8313;49.894;8.084;2023-01-01T03:32:10;5.27;;;2.60;;
16407;SDS011;8313;49.894;8.084;2023-01-01T03:34:42;6.47;;;2.60;;
16407;SDS011;8313;49.894;8.084;2023-01-01T03:37:11;3.10;;;2.30;;
16407;SDS011;8313;49.894;8.084;2023-01-01T03:39:42;2.60;;;2.40;;
16407;SDS011;8313;49.894;8.084;2023-01-01T03:42:22;4.90;;;2.87;;
16407;SDS011;8313;49.894;8.084;2023-01-01T03:47:26;3.97;;;3.07;;
16407;SDS011;8313;49.894;8.084;2023-01-01T03:49:53;3.83;;;2.80;;
16407;SDS011;8313;49.894;8.084;2023-01-01T03:55:30;4.47;;;3.37;;
16407;SDS011;8313;49.894;8.084;2023-01-01T03:58:42;2.90;;;2.03;;
16407;SDS011;8313;49.894;8.084;2023-01-01T04:01:08;3.87;;;2.40;;
16407;SDS011;8313;49.894;8.084;2023-01-01T04:03:38;2.87;;;2.47;;
16407;SDS011;8313;49.894;8.084;2023-01-01T04:06:05;6.97;;;3.20;;
16407;SDS011;8313;49.894;8.084;2023-01-01T04:08:33;3.37;;;2.53;;
16407;SDS011;8313;49.894;8.084;2023-01-01T04:10:59;2.67;;;2.40;;
16407;SDS011;8313;49.894;8.084;2023-01-01T04:13:50;3.20;;;2.50;;
16407;SDS011;8313;49.894;8.084;2023-01-01T04:16:15;2.77;;;2.17;;
16407;SDS011;8313;49.894;8.084;2023-01-01T04:18:41;3.07;;;2.23;;
16407;SDS011;8313;49.894;8.084;2023-01-01T04:21:07;2.60;;;2.27;;
16407;SDS011;8313;49.894;8.084;2023-01-01T04:23:32;4.60;;;2.97;;
16407;SDS011;8313;49.894;8.084;2023-01-01T04:25:58;3.23;;;2.40;;
16407;SDS011;8313;49.894;8.084;2023-01-01T04:28:24;4.27;;;3.77;;
16407;SDS011;8313;49.894;8.084;2023-01-01T04:30:49;2.77;;;2.40;;
16407;SDS011;8313;49.894;8.084;2023-01-01T04:33:15;5.13;;;2.93;;
16407;SDS011;8313;49.894;8.084;2023-01-01T04:35:40;2.90;;;2.30;;
16407;SDS011;8313;49.894;8.084;2023-01-01T04:38:06;3.83;;;2.50;;
16407;SDS011;8313;49.894;8.084;2023-01-01T04:40:37;5.80;;;3.70;;
16407;SDS011;8313;49.894;8.084;2023-01-01T04:43:03;4.00;;;2.53;;
16407;SDS011;8313;49.894;8.084;2023-01-01T04:45:29;3.10;;;2.80;;
16407;SDS011;8313;49.894;8.084;2023-01-01T04:47:55;7.40;;;2.80;;
16407;SDS011;8313;49.894;8.084;2023-01-01T04:50:20;3.07;;;2.50;;
16407;SDS011;8313;49.894;8.084;2023-01-01T04:52:46;4.40;;;2.90;;
16407;SDS011;8313;49.894;8.084;2023-01-01T04:55:15;3.30;;;2.57;;
16407;SDS011;8313;49.894;8.084;2023-01-01T04:57:41;3.53;;;2.90;;
16407;SDS011;8313;49.894;8.084;2023-01-01T05:00:07;3.97;;;2.73;;
16407;SDS011;8313;49.894;8.084;2023-01-01T05:02:33;4.20;;;3.30;;
16407;SDS011;8313;49.894;8.084;2023-01-01T05:04:58;2.50;;;2.13;;
16407;SDS011;8313;49.894;8.084;2023-01-01T05:07:24;3.30;;;3.00;;
16407;SDS011;8313;49.894;8.084;2023-01-01T05:09:50;3.70;;;2.43;;
16407;SDS011;8313;49.894;8.084;2023-01-01T05:12:15;2.87;;;2.57;;
16407;SDS011;8313;49.894;8.084;2023-01-01T05:14:41;4.20;;;3.20;;
16407;SDS011;8313;49.894;8.084;2023-01-01T05:17:07;4.30;;;2.50;;
16407;SDS011;8313;49.894;8.084;2023-01-01T05:19:32;4.67;;;3.03;;
16407;SDS011;8313;49.894;8.084;2023-01-01T05:21:58;4.80;;;2.60;;
16407;SDS011;8313;49.894;8.084;2023-01-01T05:24:24;4.43;;;2.60;;
16407;SDS011;8313;49.894;8.084;2023-01-01T05:26:50;2.90;;;2.60;;
16407;SDS011;8313;49.894;8.084;2023-01-01T05:29:15;3.17;;;2.87;;
16407;SDS011;8313;49.894;8.084;2023-01-01T05:31:41;3.13;;;2.53;;
16407;SDS011;8313;49.894;8.084;2023-01-01T05:34:07;3.20;;;2.90;;
16407;SDS011;8313;49.894;8.084;2023-01-01T05:36:33;3.23;;;2.93;;
16407;SDS011;8313;49.894;8.084;2023-01-01T05:39:02;4.37;;;2.90;;
16407;SDS011;8313;49.894;8.084;2023-01-01T05:41:30;4.50;;;2.97;;
16407;SDS011;8313;49.894;8.084;2023-01-01T05:44:00;3.13;;;2.77;;
16407;SDS011;8313;49.894;8.084;2023-01-01T05:46:26;3.27;;;2.97;;
16407;SDS011;8313;49.894;8.084;2023-01-01T05:48:52;2.30;;;2.13;;
16407;SDS011;8313;49.894;8.084;2023-01-01T05:51:22;5.40;;;3.13;;
16407;SDS011;8313;49.894;8.084;2023-01-01T05:53:49;3.17;;;2.87;;
16407;SDS011;8313;49.894;8.084;2023-01-01T05:56:16;3.27;;;2.43;;
16407;SDS011;8313;49.894;8.084;2023-01-01T05:58:42;5.90;;;2.70;;
16407;SDS011;8313;49.894;8.084;2023-01-01T06:01:16;3.17;;;2.50;;
16407;SDS011;8313;49.894;8.084;2023-01-01T06:03:43;4.37;;;2.70;;
16407;SDS011;8313;49.894;8.084;2023-01-01T06:06:11;5.23;;;2.70;;
16407;SDS011;8313;49.894;8.084;2023-01-01T06:08:38;2.80;;;2.50;;
16407;SDS011;8313;49.894;8.084;2023-01-01T06:11:05;2.73;;;2.23;;
16407;SDS011;8313;49.894;8.084;2023-01-01T06:13:32;3.43;;;2.60;;
16407;SDS011;8313;49.894;8.084;2023-01-01T06:15:59;4.13;;;3.00;;
16407;SDS011;8313;49.894;8.084;2023-01-01T06:18:28;3.60;;;2.67;;
16407;SDS011;8313;49.894;8.084;2023-01-01T06:20:55;3.17;;;2.87;;
16407;SDS011;8313;49.894;8.084;2023-01-01T06:23:28;2.70;;;2.50;;
16407;SDS011;8313;49.894;8.084;2023-01-01T06:25:54;2.73;;;2.50;;
16407;SDS011;8313;49.894;8.084;2023-01-01T06:28:20;4.77;;;2.70;;
16407;SDS011;8313;49.894;8.084;2023-01-01T06:30:45;2.67;;;2.43;;
16407;SDS011;8313;49.894;8.084;2023-01-01T06:33:11;5.27;;;2.90;;
16407;SDS011;8313;49.894;8.084;2023-01-01T06:35:37;5.27;;;2.30;;
16407;SDS011;8313;49.894;8.084;2023-01-01T06:38:02;5.17;;;2.67;;
16407;SDS011;8313;49.894;8.084;2023-01-01T06:40:28;3.23;;;2.67;;
16407;SDS011;8313;49.894;8.084;2023-01-01T06:42:54;3.70;;;2.50;;
16407;SDS011;8313;49.894;8.084;2023-01-01T06:45:20;3.20;;;2.30;;
16407;SDS011;8313;49.894;8.084;2023-01-01T06:47:46;3.40;;;2.50;;
16407;SDS011;8313;49.894;8.084;2023-01-01T06:50:11;2.60;;;2.33;;
16407;SDS011;8313;49.894;8.084;2023-01-01T06:52:37;3.70;;;2.67;;
16407;SDS011;8313;49.894;8.084;2023-01-01T06:55:03;2.80;;;2.50;;
16407;SDS011;8313;49.894;8.084;2023-01-01T06:57:29;3.00;;;2.30;;
16407;SDS011;8313;49.894;8.084;2023-01-01T06:59:54;3.03;;;2.20;;
16407;SDS011;8313;49.894;8.084;2023-01-01T07:02:20;2.80;;;2.30;;
16407;SDS011;8313;49.894;8.084;2023-01-01T07:04:45;4.33;;;2.23;;
16407;SDS011;8313;49.894;8.084;2023-01-01T07:07:11;3.27;;;2.60;;
16407;SDS011;8313;49.894;8.084;2023-01-01T07:09:37;2.37;;;2.17;;
16407;SDS011;8313;49.894;8.084;2023-01-01T07:12:02;5.77;;;2.53;;
16407;SDS011;8313;49.894;8.084;2023-01-01T07:14:28;3.73;;;2.60;;
16407;SDS011;8313;49.894;8.084;2023-01-01T07:16:54;3.37;;;2.50;;
16407;SDS011;8313;49.894;8.084;2023-01-01T07:19:20;5.13;;;2.60;;
16407;SDS011;8313;49.894;8.084;2023-01-01T07:21:50;4.57;;;2.60;;
16407;SDS011;8313;49.894;8.084;2023-01-01T07:24:18;3.30;;;2.23;;
16407;SDS011;8313;49.894;8.084;2023-01-01T07:26:44;2.40;;;2.20;;
16407;SDS011;8313;49.894;8.084;2023-01-01T07:29:10;3.80;;;3.17;;
16407;SDS011;8313;49.894;8.084;2023-01-01T07:31:40;2.90;;;2.30;;
16407;SDS011;8313;49.894;8.084;2023-01-01T07:34:11;2.57;;;2.00;;
16407;SDS011;8313;49.894;8.084;2023-01-01T07:36:39;2.80;;;2.50;;
16407;SDS011;8313;49.894;8.084;2023-01-01T07:39:05;4.70;;;2.70;;
16407;SDS011;8313;49.894;8.084;2023-01-01T07:41:31;6.00;;;2.60;;
16407;SDS011;8313;49.894;8.084;2023-01-01T07:43:57;4.67;;;2.60;;
16407;SDS011;8313;49.894;8.084;2023-01-01T07:46:23;3.37;;;2.70;;
16407;SDS011;8313;49.894;8.084;2023-01-01T07:48:48;3.50;;;2.17;;
16407;SDS011;8313;49.894;8.084;2023-01-01T07:51:14;5.10;;;2.50;;
16407;SDS011;8313;49.894;8.084;2023-01-01T07:53:40;3.00;;;2.30;;
16407;SDS011;8313;49.894;8.084;2023-01-01T07:56:06;5.70;;;2.10;;
16407;SDS011;8313;49.894;8.084;2023-01-01T07:58:32;2.40;;;2.20;;
16407;SDS011;8313;49.894;8.084;2023-01-01T08:00:58;2.40;;;2.20;;
16407;SDS011;8313;49.894;8.084;2023-01-01T08:03:23;4.90;;;2.90;;
16407;SDS011;8313;49.894;8.084;2023-01-01T08:05:49;4.40;;;2.63;;
16407;SDS011;8313;49.894;8.084;2023-01-01T08:08:15;5.47;;;2.90;;
16407;SDS011;8313;49.894;8.084;2023-01-01T08:10:40;2.70;;;2.23;;
16407;SDS011;8313;49.894;8.084;2023-01-01T08:13:07;4.13;;;2.27;;
16407;SDS011;8313;49.894;8.084;2023-01-01T08:15:33;3.90;;;2.70;;
16407;SDS011;8313;49.894;8.084;2023-01-01T08:18:00;3.13;;;2.60;;
16407;SDS011;8313;49.894;8.084;2023-01-01T08:20:29;3.30;;;3.00;;
16407;SDS011;8313;49.894;8.084;2023-01-01T08:22:56;3.23;;;2.00;;
16407;SDS011;8313;49.894;8.084;2023-01-01T08:25:23;3.40;;;2.37;;
16407;SDS011;8313;49.894;8.084;2023-01-01T08:27:49;2.50;;;2.30;;
16407;SDS011;8313;49.894;8.084;2023-01-01T08:30:15;2.47;;;2.27;;
16407;SDS011;8313;49.894;8.084;2023-01-01T08:32:41;4.00;;;2.43;;
16407;SDS011;8313;49.894;8.084;2023-01-01T08:35:07;2.80;;;2.00;;
16407;SDS011;8313;49.894;8.084;2023-01-01T08:37:33;3.20;;;2.40;;
16407;SDS011;8313;49.894;8.084;2023-01-01T08:39:59;3.10;;;2.80;;
16407;SDS011;8313;49.894;8.084;2023-01-01T08:42:24;5.00;;;2.27;;
16407;SDS011;8313;49.894;8.084;2023-01-01T08:44:50;4.70;;;2.60;;
16407;SDS011;8313;49.894;8.084;2023-01-01T08:47:20;5.47;;;2.50;;
16407;SDS011;8313;49.894;8.084;2023-01-01T08:49:50;7.53;;;3.00;;
16407;SDS011;8313;49.894;8.084;2023-01-01T08:52:16;4.23;;;2.40;;
16407;SDS011;8313;49.894;8.084;2023-01-01T08:54:42;2.90;;;2.33;;
16407;SDS011;8313;49.894;8.084;2023-01-01T08:57:08;3.00;;;2.40;;
16407;SDS011;8313;49.894;8.084;2023-01-01T08:59:34;3.40;;;2.70;;
16407;SDS011;8313;49.894;8.084;2023-01-01T09:02:00;2.73;;;2.50;;
16407;SDS011;8313;49.894;8.084;2023-01-01T09:04:25;6.03;;;2.43;;
16407;SDS011;8313;49.894;8.084;2023-01-01T09:06:51;2.80;;;2.20;;
16407;SDS011;8313;49.894;8.084;2023-01-01T09:09:17;3.00;;;2.20;;
16407;SDS011;8313;49.894;8.084;2023-01-01T09:11:50;3.73;;;2.37;;
16407;SDS011;8313;49.894;8.084;2023-01-01T09:14:17;4.50;;;2.23;;
16407;SDS011;8313;49.894;8.084;2023-01-01T09:16:43;3.97;;;2.50;;
16407;SDS011;8313;49.894;8.084;2023-01-01T09:19:09;5.13;;;2.70;;
16407;SDS011;8313;49.894;8.084;2023-01-01T09:21:35;4.07;;;2.70;;
16407;SDS011;8313;49.894;8.084;2023-01-01T09:24:01;2.43;;;2.23;;
16407;SDS011;8313;49.894;8.084;2023-01-01T09:26:27;2.73;;;2.40;;
16407;SDS011;8313;49.894;8.084;2023-01-01T09:28:53;4.43;;;2.30;;
16407;SDS011;8313;49.894;8.084;2023-01-01T09:31:18;3.17;;;2.30;;
16407;SDS011;8313;49.894;8.084;2023-01-01T09:33:44;5.37;;;2.83;;
16407;SDS011;8313;49.894;8.084;2023-01-01T09:36:10;3.53;;;2.93;;
16407;SDS011;8313;49.894;8.084;2023-01-01T09:38:50;2.90;;;2.70;;
16407;SDS011;8313;49.894;8.084;2023-01-01T09:41:24;5.20;;;2.33;;
16407;SDS011;8313;49.894;8.084;2023-01-01T09:46:59;15.10;;;2.50;;
16407;SDS011;8313;49.894;8.084;2023-01-01T09:49:30;4.07;;;2.37;;
16407;SDS011;8313;49.894;8.084;2023-01-01T09:52:03;4.60;;;3.17;;
16407;SDS011;8313;49.894;8.084;2023-01-01T09:54:39;5.07;;;2.90;;
16407;SDS011;8313;49.894;8.084;2023-01-01T09:57:34;4.13;;;3.73;;
16407;SDS011;8313;49.894;8.084;2023-01-01T10:00:00;5.07;;;4.67;;
16407;SDS011;8313;49.894;8.084;2023-01-01T10:08:09;5.97;;;5.37;;
16407;SDS011;8313;49.894;8.084;2023-01-01T10:13:35;5.20;;;4.00;;
16407;SDS011;8313;49.894;8.084;2023-01-01T10:18:38;5.30;;;3.53;;
16407;SDS011;8313;49.894;8.084;2023-01-01T10:23:47;4.20;;;2.80;;
16407;SDS011;8313;49.894;8.084;2023-01-01T10:26:19;3.27;;;2.93;;
16407;SDS011;8313;49.894;8.084;2023-01-01T10:28:50;3.07;;;2.70;;
16407;SDS011;8313;49.894;8.084;2023-01-01T10:31:32;4.23;;;2.83;;
16407;SDS011;8313;49.894;8.084;2023-01-01T10:34:07;6.13;;;3.47;;
16407;SDS011;8313;49.894;8.084;2023-01-01T10:36:36;7.20;;;3.23;;
16407;SDS011;8313;49.894;8.084;2023-01-01T10:39:02;6.70;;;5.47;;
16407;SDS011;8313;49.894;8.084;2023-01-01T10:41:28;17.63;;;9.60;;
16407;SDS011;8313;49.894;8.084;2023-01-01T10:43:54;12.37;;;7.70;;
16407;SDS011;8313;49.894;8.084;2023-01-01T10:46:21;24.87;;;16.67;;
16407;SDS011;8313;49.894;8.084;2023-01-01T10:49:02;43.97;;;25.20;;
16407;SDS011;8313;49.894;8.084;2023-01-01T10:51:29;49.50;;;29.10;;
16407;SDS011;8313;49.894;8.084;2023-01-01T10:53:55;71.50;;;41.20;;
16407;SDS011;8313;49.894;8.084;2023-01-01T10:56:22;52.90;;;32.80;;
16407;SDS011;8313;49.894;8.084;2023-01-01T10:58:52;39.77;;;23.10;;
16407;SDS011;8313;49.894;8.084;2023-01-01T11:03:55;15.53;;;10.93;;
16407;SDS011;8313;49.894;8.084;2023-01-01T11:06:25;8.50;;;7.50;;
16407;SDS011;8313;49.894;8.084;2023-01-01T11:09:05;7.50;;;4.80;;
16407;SDS011;8313;49.894;8.084;2023-01-01T11:11:59;5.83;;;3.80;;
16407;SDS011;8313;49.894;8.084;2023-01-01T11:14:26;4.60;;;3.80;;
16407;SDS011;8313;49.894;8.084;2023-01-01T11:16:54;5.83;;;4.23;;
16407;SDS011;8313;49.894;8.084;2023-01-01T11:19:27;8.77;;;3.77;;
16407;SDS011;8313;49.894;8.084;2023-01-01T11:21:58;2.93;;;2.63;;
16407;SDS011;8313;49.894;8.084;2023-01-01T11:26:52;4.37;;;3.07;;
16407;SDS011;8313;49.894;8.084;2023-01-01T11:29:34;4.73;;;3.40;;
16407;SDS011;8313;49.894;8.084;2023-01-01T11:32:00;4.00;;;3.33;;
16407;SDS011;8313;49.894;8.084;2023-01-01T11:34:30;5.63;;;3.00;;
16407;SDS011;8313;49.894;8.084;2023-01-01T11:39:52;6.97;;;2.83;;
16407;SDS011;8313;49.894;8.084;2023-01-01T11:42:21;12.20;;;3.37;;
16407;SDS011;8313;49.894;8.084;2023-01-01T11:44:49;8.97;;;3.47;;
16407;SDS011;8313;49.894;8.084;2023-01-01T11:49:54;7.60;;;4.40;;
16407;SDS011;8313;49.894;8.084;2023-01-01T11:52:44;4.13;;;3.00;;
16407;SDS011;8313;49.894;8.084;2023-01-01T11:57:58;6.70;;;5.10;;
16407;SDS011;8313;49.894;8.084;2023-01-01T12:00:25;9.70;;;6.57;;
16407;SDS011;8313;49.894;8.084;2023-01-01T12:03:00;11.23;;;7.00;;
16407;SDS011;8313;49.894;8.084;2023-01-01T12:05:50;6.47;;;5.03;;
16407;SDS011;8313;49.894;8.084;2023-01-01T12:08:27;4.93;;;3.13;;
16407;SDS011;8313;49.894;8.084;2023-01-01T12:11:02;4.67;;;2.90;;
16407;SDS011;8313;49.894;8.084;2023-01-01T12:13:55;5.67;;;2.60;;
16407;SDS011;8313;49.894;8.084;2023-01-01T12:16:47;3.30;;;2.43;;
16407;SDS011;8313;49.894;8.084;2023-01-01T12:19:37;10.30;;;2.87;;
16407;SDS011;8313;49.894;8.084;2023-01-01T12:22:23;3.43;;;2.47;;
16407;SDS011;8313;49.894;8.084;2023-01-01T12:24:49;7.10;;;2.60;;
16407;SDS011;8313;49.894;8.084;2023-01-01T12:27:18;4.17;;;3.03;;
16407;SDS011;8313;49.894;8.084;2023-01-01T12:41:09;3.33;;;2.30;;
16407;SDS011;8313;49.894;8.084;2023-01-01T12:57:04;3.80;;;2.43;;
16407;SDS011;8313;49.894;8.084;2023-01-01T12:59:35;4.30;;;3.10;;
16407;SDS011;8313;49.894;8.084;2023-01-01T13:02:11;14.67;;;6.63;;
16407;SDS011;8313;49.894;8.084;2023-01-01T13:04:42;9.53;;;6.60;;
16407;SDS011;8313;49.894;8.084;2023-01-01T13:07:11;9.17;;;6.80;;
16407;SDS011;8313;49.894;8.084;2023-01-01T13:09:40;10.10;;;8.60;;
16407;SDS011;8313;49.894;8.084;2023-01-01T13:12:13;15.17;;;10.47;;
16407;SDS011;8313;49.894;8.084;2023-01-01T13:14:45;10.40;;;8.33;;
16407;SDS011;8313;49.894;8.084;2023-01-01T13:17:21;9.63;;;8.63;;
16407;SDS011;8313;49.894;8.084;2023-01-01T13:43:51;3.83;;;3.10;;
16407;SDS011;8313;49.894;8.084;2023-01-01T13:46:44;11.93;;;3.30;;
16407;SDS011;8313;49.894;8.084;2023-01-01T14:00:33;6.60;;;3.43;;
16407;SDS011;8313;49.894;8.084;2023-01-01T14:03:10;7.20;;;4.10;;
16407;SDS011;8313;49.894;8.084;2023-01-01T14:05:41;5.13;;;3.67;;
16407;SDS011;8313;49.894;8.084;2023-01-01T14:08:30;5.27;;;3.77;;
16407;SDS011;8313;49.894;8.084;2023-01-01T14:11:01;7.47;;;3.00;;
16407;SDS011;8313;49.894;8.084;2023-01-01T14:13:41;5.43;;;3.50;;
16407;SDS011;8313;49.894;8.084;2023-01-01T14:16:08;6.70;;;3.67;;
16407;SDS011;8313;49.894;8.084;2023-01-01T14:18:48;4.80;;;3.30;;
16407;SDS011;8313;49.894;8.084;2023-01-01T14:21:21;4.50;;;3.40;;
16407;SDS011;8313;49.894;8.084;2023-01-01T14:23:53;3.80;;;3.40;;
16407;SDS011;8313;49.894;8.084;2023-01-01T14:26:23;9.20;;;4.27;;
16407;SDS011;8313;49.894;8.084;2023-01-01T14:28:55;5.40;;;3.20;;
16407;SDS011;8313;49.894;8.084;2023-01-01T14:31:23;3.03;;;2.70;;
16407;SDS011;8313;49.894;8.084;2023-01-01T14:33:55;3.80;;;2.57;;
16407;SDS011;8313;49.894;8.084;2023-01-01T14:36:25;5.50;;;2.90;;
16407;SDS011;8313;49.894;8.084;2023-01-01T14:38:53;5.50;;;2.63;;
16407;SDS011;8313;49.894;8.084;2023-01-01T14:46:31;7.50;;;3.00;;
16407;SDS011;8313;49.894;8.084;2023-01-01T14:49:02;4.70;;;2.80;;
16407;SDS011;8313;49.894;8.084;2023-01-01T14:51:33;3.23;;;2.53;;
16407;SDS011;8313;49.894;8.084;2023-01-01T14:54:00;9.00;;;3.50;;
16407;SDS011;8313;49.894;8.084;2023-01-01T14:56:31;8.17;;;3.50;;
16407;SDS011;8313;49.894;8.084;2023-01-01T14:59:09;3.93;;;3.23;;
16407;SDS011;8313;49.894;8.084;2023-01-01T15:01:38;4.27;;;2.63;;
16407;SDS011;8313;49.894;8.084;2023-01-01T15:04:24;11.80;;;3.97;;
16407;SDS011;8313;49.894;8.084;2023-01-01T15:06:54;4.57;;;2.80;;
16407;SDS011;8313;49.894;8.084;2023-01-01T15:09:25;3.57;;;2.43;;
16407;SDS011;8313;49.894;8.084;2023-01-01T15:11:54;13.13;;;3.50;;
16407;SDS011;8313;49.894;8.084;2023-01-01T15:14:40;4.07;;;3.00;;
16407;SDS011;8313;49.894;8.084;2023-01-01T15:17:10;4.10;;;3.27;;
16407;SDS011;8313;49.894;8.084;2023-01-01T15:19:37;5.93;;;3.30;;
16407;SDS011;8313;49.894;8.084;2023-01-01T15:22:23;6.80;;;3.20;;
16407;SDS011;8313;49.894;8.084;2023-01-01T15:24:50;4.50;;;3.60;;
16407;SDS011;8313;49.894;8.084;2023-01-01T15:29:54;4.30;;;3.70;;
16407;SDS011;8313;49.894;8.084;2023-01-01T15:32:33;7.80;;;3.90;;
16407;SDS011;8313;49.894;8.084;2023-01-01T15:35:02;10.90;;;4.70;;
16407;SDS011;8313;49.894;8.084;2023-01-01T15:37:46;8.73;;;4.93;;
16407;SDS011;8313;49.894;8.084;2023-01-01T15:42:45;11.30;;;4.73;;
16407;SDS011;8313;49.894;8.084;2023-01-01T15:45:30;8.83;;;6.07;;
16407;SDS011;8313;49.894;8.084;2023-01-01T15:50:40;8.40;;;6.00;;
16407;SDS011;8313;49.894;8.084;2023-01-01T15:53:23;5.10;;;4.30;;
16407;SDS011;8313;49.894;8.084;2023-01-01T15:56:02;9.97;;;5.77;;
16407;SDS011;8313;49.894;8.084;2023-01-01T16:01:21;7.10;;;4.10;;
16407;SDS011;8313;49.894;8.084;2023-01-01T16:03:50;9.67;;;5.10;;
16407;SDS011;8313;49.894;8.084;2023-01-01T16:06:22;7.97;;;5.87;;
16407;SDS011;8313;49.894;8.084;2023-01-01T16:08:48;6.70;;;4.53;;
16407;SDS011;8313;49.894;8.084;2023-01-01T16:11:13;9.53;;;5.70;;
16407;SDS011;8313;49.894;8.084;2023-01-01T16:13:39;8.40;;;5.37;;
16407;SDS011;8313;49.894;8.084;2023-01-01T16:16:06;6.80;;;4.63;;
16407;SDS011;8313;49.894;8.084;2023-01-01T16:18:44;8.57;;;5.40;;
16407;SDS011;8313;49.894;8.084;2023-01-01T16:21:09;15.73;;;6.53;;
16407;SDS011;8313;49.894;8.084;2023-01-01T16:23:35;8.57;;;5.53;;
16407;SDS011;8313;49.894;8.084;2023-01-01T16:26:00;12.03;;;5.60;;
16407;SDS011;8313;49.894;8.084;2023-01-01T16:28:26;7.10;;;5.73;;
16407;SDS011;8313;49.894;8.084;2023-01-01T16:30:52;11.53;;;5.90;;
16407;SDS011;8313;49.894;8.084;2023-01-01T16:33:19;12.90;;;6.10;;
16407;SDS011;8313;49.894;8.084;2023-01-01T16:35:47;21.47;;;10.90;;
16407;SDS011;8313;49.894;8.084;2023-01-01T16:38:12;24.80;;;13.87;;
16407;SDS011;8313;49.894;8.084;2023-01-01T16:40:38;23.23;;;13.70;;
16407;SDS011;8313;49.894;8.084;2023-01-01T16:43:04;27.40;;;15.47;;
16407;SDS011;8313;49.894;8.084;2023-01-01T16:45:33;25.20;;;14.40;;
16407;SDS011;8313;49.894;8.084;2023-01-01T16:48:00;27.43;;;15.07;;
16407;SDS011;8313;49.894;8.084;2023-01-01T16:50:25;29.03;;;15.97;;
16407;SDS011;8313;49.894;8.084;2023-01-01T16:52:53;26.83;;;15.33;;
16407;SDS011;8313;49.894;8.084;2023-01-01T16:55:19;24.30;;;14.00;;
16407;SDS011;8313;49.894;8.084;2023-01-01T16:57:45;26.77;;;14.33;;
16407;SDS011;8313;49.894;8.084;2023-01-01T17:00:11;19.13;;;12.93;;
16407;SDS011;8313;49.894;8.084;2023-01-01T17:02:38;18.63;;;11.37;;
16407;SDS011;8313;49.894;8.084;2023-01-01T17:05:04;12.47;;;8.80;;
16407;SDS011;8313;49.894;8.084;2023-01-01T17:07:29;17.20;;;10.77;;
16407;SDS011;8313;49.894;8.084;2023-01-01T17:09:55;15.63;;;9.53;;
16407;SDS011;8313;49.894;8.084;2023-01-01T17:12:21;12.63;;;9.33;;
16407;SDS011;8313;49.894;8.084;2023-01-01T17:14:46;17.53;;;9.03;;
16407;SDS011;8313;49.894;8.084;2023-01-01T17:17:13;11.37;;;6.67;;
16407;SDS011;8313;49.894;8.084;2023-01-01T17:19:39;9.30;;;6.40;;
16407;SDS011;8313;49.894;8.084;2023-01-01T17:22:04;9.37;;;7.10;;
16407;SDS011;8313;49.894;8.084;2023-01-01T17:24:30;15.73;;;7.20;;
16407;SDS011;8313;49.894;8.084;2023-01-01T17:26:57;10.97;;;7.10;;
16407;SDS011;8313;49.894;8.084;2023-01-01T17:29:23;10.20;;;6.47;;
16407;SDS011;8313;49.894;8.084;2023-01-01T17:31:49;7.40;;;5.60;;
16407;SDS011;8313;49.894;8.084;2023-01-01T17:34:15;10.63;;;5.53;;
16407;SDS011;8313;49.894;8.084;2023-01-01T17:36:41;10.37;;;7.37;;
16407;SDS011;8313;49.894;8.084;2023-01-01T17:39:09;16.40;;;11.50;;